EST,Max TemperatureF,Mean TemperatureF,Min TemperatureF,Max Dew PointF,MeanDew PointF,Min DewpointF,Max Humidity, Mean Humidity, Min Humidity, Max Sea Level PressureIn, Mean Sea Level PressureIn, Min Sea Level PressureIn, Max VisibilityMiles, Mean VisibilityMiles, Min VisibilityMiles, Max Wind SpeedMPH, Mean Wind SpeedMPH, Max Gust SpeedMPH,PrecipitationIn, CloudCover, Events, WindDirDegrees
2013-2-1,53,42,32,34,18,-2,100,42,12,30.39,30.30,30.21,10,10,10,15,6,23,0.00,0,,299
2013-2-2,59,41,23,32,17,1,100,48,10,30.40,30.29,30.15,10,10,10,8,1,,0.00,1,,234
2013-2-3,62,48,35,39,30,21,93,52,20,30.18,30.10,30.01,10,10,10,24,6,33,0.00,1,,286
2013-2-4,55,42,30,37,30,19,100,69,26,30.17,30.11,30.05,10,10,10,5,1,,0.00,0,,193
2013-2-5,69,51,33,55,43,34,100,76,33,30.09,30.04,29.99,10,10,10,15,2,17,0.00,3,,245
2013-2-6,71,56,42,57,44,32,100,72,23,30.19,30.13,30.07,10,8,0,7,2,,0.00,1,Fog,318
2013-2-7,55,48,42,55,51,43,100,100,93,30.15,30.02,29.85,10,8,1,17,4,25,0.00,7,Rain,49
2013-2-8,62,54,46,54,49,46,100,89,59,30.14,30.03,29.93,10,10,10,12,5,18,0.00,6,,314
2013-2-9,62,48,35,46,36,25,100,72,24,30.33,30.26,30.14,10,10,10,8,3,,0.00,0,,30
2013-2-10,71,53,35,61,43,34,100,70,38,30.36,30.26,30.10,10,10,5,17,5,23,0.00,3,Rain,131
2013-2-11,66,60,55,66,60,55,100,100,100,30.20,30.14,30.10,10,8,2,14,5,17,0.00,8,Rain-Thunderstorm,194
2013-2-12,59,54,48,57,53,46,100,96,72,30.15,30.03,29.87,10,9,2,12,3,17,0.00,8,Rain-Thunderstorm,37
2013-2-13,62,55,46,61,51,41,100,90,48,29.97,29.85,29.78,10,8,1,18,6,26,0.00,6,Rain-Thunderstorm,270
2013-2-14,50,42,35,46,40,36,100,87,58,30.12,30.06,29.95,10,9,5,8,4,,0.00,0,,321
2013-2-15,64,48,32,46,36,30,100,76,30,30.15,30.07,30.00,10,8,0,7,1,,0.00,1,Fog,302
2013-2-16,50,42,32,43,25,5,100,56,18,30.18,30.02,29.94,10,10,10,22,7,29,0.00,4,Rain,319
2013-2-17,50,39,28,28,14,-2,93,46,12,30.35,30.28,30.18,10,10,10,18,6,24,0.00,0,,308
2013-2-18,59,42,26,32,24,14,100,59,19,30.43,30.34,30.24,10,10,10,12,2,16,0.00,0,,166
2013-2-19,62,52,41,57,41,23,100,78,40,30.24,30.11,30.03,10,9,2,14,6,17,0.00,4,Rain,244
2013-2-20,60,45,30,32,21,5,100,44,12,30.22,30.16,30.09,10,10,10,10,5,,0.00,0,,316
2013-2-21,69,51,33,37,25,10,93,44,11,30.21,30.12,30.04,10,10,7,8,1,,0.00,0,,133
2013-2-22,53,48,44,54,47,32,100,93,44,30.15,30.10,30.05,10,6,0,13,7,17,0.00,8,Rain-Thunderstorm,59
2013-2-23,48,45,42,48,46,43,100,100,100,30.04,29.94,29.88,10,6,0,9,5,18,0.00,8,Rain-Thunderstorm,26
2013-2-24,69,56,42,52,44,28,100,77,21,30.05,29.99,29.94,10,8,0,8,3,,0.00,3,Fog,326
2013-2-25,51,46,42,52,48,43,100,99,76,30.05,29.97,29.88,10,8,2,20,4,30,0.00,7,Rain-Thunderstorm,82
2013-2-26,71,56,42,68,45,34,100,72,27,29.90,29.70,29.60,10,9,2,20,9,26,0.00,4,Rain,203
2013-2-27,60,50,41,39,35,32,76,57,36,29.96,29.90,29.84,10,10,10,16,9,23,0.00,0,,259
2013-2-28,59,50,41,43,32,27,100,56,31,30.00,29.93,29.88,10,10,10,20,8,26,0.00,0,,291